San Antonio, Texas
Current Conditions -  °F | °C
As of 6:26 AM on Sunday 21 Dec 2014 (Local Time) from KSKF Reporting Station
Overcast Overcast  
Wind Chill: 52°   Ceiling: 1200
Heat Index: 52°   Visibility: 10mi
Dew Point: 48°   Wind: 7mph
Humidity: 88%   Direction: 160°SSE
Pressure: 30.08"   Gusts: NA
Location:  29.42°N, 98.49°W
Report Text: KSKF 211226Z AUTO 16006KT 10SM OVC012 11/09 A3008 RMK AO2 $
Loading
Personal Weather Stations






























Interactive Weather Map New forecast layout! Learn more

10-Day Weather Forecast

Advertisements
Track Severe Weather on mobile